Time;durP1;ratioP1;P1;durP2;ratioP2;P2;SDS_P1;SDS_P2;PMS_P1;PMS_P2;Temp;Humidity;BMP_temperature;BMP_pressure;BME280_temperature;BME280_humidity;BME280_pressure;Samples;Min_cycle;Max_cycle;Signal;HPM_P1;HPM_P2
2022/04/13 00:01:59;;;;;;;;;;;21.20;34.40;;;;;;498862;239;1161;-39
2022/04/13 00:04:00;;;;;;;;;;;21.30;34.40;;;;;;498883;239;1018;-39
2022/04/13 00:06:02;;;;;;;;;;;21.30;34.40;;;;;;498393;239;1307;-39
2022/04/13 00:08:06;;;;;;;;;;;21.20;34.40;;;;;;498885;239;1055;-39
2022/04/13 00:10:04;;;;;;;;;;;21.20;34.40;;;;;;498288;239;2506;-39
2022/04/13 00:12:06;;;;;;;;;;;21.20;34.40;;;;;;498393;239;1175;-39
2022/04/13 00:14:07;;;;;;;;;;;21.20;34.50;;;;;;498907;239;2176;-40
2022/04/13 00:16:08;;;;;;;;;;;21.20;34.40;;;;;;498874;239;1205;-39
2022/04/13 00:18:10;;;;;;;;;;;21.30;34.40;;;;;;498425;239;1049;-39
2022/04/13 00:20:11;;;;;;;;;;;21.20;34.40;;;;;;498754;239;1267;-39
2022/04/13 00:22:12;;;;;;;;;;;21.20;34.40;;;;;;498852;239;1182;-39
2022/04/13 00:24:14;;;;;;;;;;;21.20;34.40;;;;;;498907;239;1041;-39
2022/04/13 00:26:15;;;;;;;;;;;21.20;34.50;;;;;;498426;239;1123;-39
2022/04/13 00:28:16;;;;;;;;;;;21.20;34.50;;;;;;498414;239;1176;-40
2022/04/13 00:30:18;;;;;;;;;;;21.30;34.50;;;;;;498925;239;1447;-40
2022/04/13 00:32:19;;;;;;;;;;;21.20;34.40;;;;;;498860;239;1108;-39
2022/04/13 00:34:21;;;;;;;;;;;21.20;34.40;;;;;;498862;239;2180;-39
2022/04/13 00:36:21;;;;;;;;;;;21.20;34.40;;;;;;498354;239;2437;-39
2022/04/13 00:38:23;;;;;;;;;;;21.30;34.40;;;;;;498709;239;1171;-39
2022/04/13 00:40:24;;;;;;;;;;;21.20;34.40;;;;;;498892;239;1147;-39
2022/04/13 00:42:26;;;;;;;;;;;21.30;34.50;;;;;;498841;239;1193;-39
2022/04/13 00:44:27;;;;;;;;;;;21.20;34.50;;;;;;498874;239;2105;-39
2022/04/13 00:46:29;;;;;;;;;;;21.20;34.50;;;;;;498874;239;1384;-39
2022/04/13 00:48:30;;;;;;;;;;;21.20;34.50;;;;;;498437;239;1065;-40
2022/04/13 00:50:31;;;;;;;;;;;21.20;34.50;;;;;;498736;239;1226;-39
2022/04/13 00:52:33;;;;;;;;;;;21.20;34.50;;;;;;498851;239;1242;-39
2022/04/13 00:54:34;;;;;;;;;;;21.20;34.40;;;;;;498886;239;2181;-39
2022/04/13 00:56:35;;;;;;;;;;;21.20;34.60;;;;;;498617;239;1205;-39
2022/04/13 00:58:37;;;;;;;;;;;21.20;34.50;;;;;;498380;239;1077;-39
2022/04/13 01:00:39;;;;;;;;;;;21.20;34.50;;;;;;498892;239;1053;-39
2022/04/13 01:02:40;;;;;;;;;;;21.20;34.50;;;;;;498389;239;2339;-39
2022/04/13 01:04:41;;;;;;;;;;;21.20;34.50;;;;;;498704;239;1039;-39
2022/04/13 01:06:42;;;;;;;;;;;21.20;34.50;;;;;;498484;239;1293;-39
2022/04/13 01:08:43;;;;;;;;;;;21.30;34.50;;;;;;498440;239;1070;-39
2022/04/13 01:10:45;;;;;;;;;;;21.20;34.50;;;;;;498867;239;1162;-39
2022/04/13 01:12:46;;;;;;;;;;;21.20;34.50;;;;;;498436;239;1058;-39
2022/04/13 01:14:48;;;;;;;;;;;21.20;34.50;;;;;;498932;239;2113;-39
2022/04/13 01:16:49;;;;;;;;;;;21.30;34.50;;;;;;498897;239;1049;-39
2022/04/13 01:18:50;;;;;;;;;;;21.20;34.50;;;;;;498907;239;1022;-39
2022/04/13 01:20:53;;;;;;;;;;;21.20;34.60;;;;;;498431;239;1174;-39
2022/04/13 01:22:54;;;;;;;;;;;21.20;34.50;;;;;;498776;239;1379;-39
2022/04/13 01:24:55;;;;;;;;;;;21.20;34.50;;;;;;498438;239;1036;-39
2022/04/13 01:26:57;;;;;;;;;;;21.20;34.50;;;;;;498360;239;1075;-39
2022/04/13 01:28:58;;;;;;;;;;;21.20;34.50;;;;;;498877;239;1049;-39
2022/04/13 01:30:59;;;;;;;;;;;21.30;34.50;;;;;;498829;239;1261;-39
2022/04/13 01:33:01;;;;;;;;;;;21.20;34.50;;;;;;498448;239;2189;-39
2022/04/13 01:35:02;;;;;;;;;;;21.20;34.50;;;;;;498938;239;1238;-39
2022/04/13 01:37:03;;;;;;;;;;;21.20;34.60;;;;;;498441;239;1163;-39
2022/04/13 01:39:05;;;;;;;;;;;21.20;34.60;;;;;;498932;239;969;-39
2022/04/13 01:41:06;;;;;;;;;;;21.20;34.50;;;;;;498868;239;1288;-39
2022/04/13 01:43:07;;;;;;;;;;;21.20;34.60;;;;;;498913;239;1343;-39
2022/04/13 01:45:09;;;;;;;;;;;21.20;34.60;;;;;;498912;239;1040;-39
2022/04/13 01:47:10;;;;;;;;;;;21.20;34.60;;;;;;498870;239;1209;-39
2022/04/13 01:49:11;;;;;;;;;;;21.20;34.60;;;;;;498952;239;1031;-40
2022/04/13 01:51:12;;;;;;;;;;;21.20;34.60;;;;;;498699;239;1388;-39
2022/04/13 01:53:14;;;;;;;;;;;21.20;34.60;;;;;;498920;239;2109;-39
2022/04/13 01:55:15;;;;;;;;;;;21.20;34.60;;;;;;498735;239;1271;-39
2022/04/13 01:57:17;;;;;;;;;;;21.30;34.50;;;;;;498703;239;1115;-39
2022/04/13 01:59:18;;;;;;;;;;;21.20;34.50;;;;;;498925;239;1041;-39
2022/04/13 02:01:19;;;;;;;;;;;21.30;34.60;;;;;;498582;237;1199;-39
2022/04/13 02:03:21;;;;;;;;;;;21.20;34.60;;;;;;498471;239;1108;-39
2022/04/13 02:05:22;;;;;;;;;;;21.30;34.50;;;;;;498935;239;1230;-39
2022/04/13 02:07:23;;;;;;;;;;;21.20;34.50;;;;;;498445;239;1186;-39
2022/04/13 02:09:25;;;;;;;;;;;21.30;34.50;;;;;;498919;239;1053;-39
2022/04/13 02:11:26;;;;;;;;;;;21.20;34.60;;;;;;498749;239;1194;-39
2022/04/13 02:13:27;;;;;;;;;;;21.20;34.50;;;;;;498439;239;2189;-39
2022/04/13 02:15:29;;;;;;;;;;;21.20;34.60;;;;;;498916;239;1043;-39
2022/04/13 02:17:30;;;;;;;;;;;21.20;34.50;;;;;;498858;239;1192;-39
2022/04/13 02:19:31;;;;;;;;;;;21.20;34.50;;;;;;498882;239;1021;-39
2022/04/13 02:21:33;;;;;;;;;;;21.20;34.50;;;;;;498414;235;1297;-39
2022/04/13 02:23:34;;;;;;;;;;;21.20;34.60;;;;;;498410;239;1047;-39
2022/04/13 02:25:35;;;;;;;;;;;21.20;34.50;;;;;;498880;239;1035;-39
2022/04/13 02:27:37;;;;;;;;;;;21.20;34.50;;;;;;498589;239;1197;-39
2022/04/13 02:29:38;;;;;;;;;;;21.20;34.60;;;;;;498485;239;1051;-39
2022/04/13 02:31:39;;;;;;;;;;;21.20;34.50;;;;;;498742;239;1174;-39
2022/04/13 02:33:41;;;;;;;;;;;21.20;34.60;;;;;;498898;239;2117;-39
2022/04/13 02:35:42;;;;;;;;;;;21.20;34.60;;;;;;498780;239;1052;-39
2022/04/13 02:37:44;;;;;;;;;;;21.20;34.60;;;;;;498375;239;1175;-39
2022/04/13 02:39:45;;;;;;;;;;;21.20;34.60;;;;;;498709;239;2564;-39
2022/04/13 02:41:46;;;;;;;;;;;21.20;34.60;;;;;;498815;239;1289;-39
2022/04/13 02:43:48;;;;;;;;;;;21.20;34.60;;;;;;498926;239;1045;-39
2022/04/13 02:45:49;;;;;;;;;;;21.20;34.60;;;;;;498891;239;1142;-39
2022/04/13 02:47:50;;;;;;;;;;;21.20;34.60;;;;;;498883;239;1190;-39
2022/04/13 02:49:52;;;;;;;;;;;21.20;34.60;;;;;;498914;239;1079;-39
2022/04/13 02:51:53;;;;;;;;;;;21.20;34.60;;;;;;498536;239;1202;-39
2022/04/13 02:53:54;;;;;;;;;;;21.20;34.60;;;;;;498853;239;2184;-39
2022/04/13 02:55:56;;;;;;;;;;;21.20;34.60;;;;;;498791;239;1274;-39
2022/04/13 02:57:57;;;;;;;;;;;21.20;34.60;;;;;;498848;239;1194;-39
2022/04/13 02:59:58;;;;;;;;;;;21.20;34.60;;;;;;498919;239;984;-39
2022/04/13 03:02:00;;;;;;;;;;;21.20;34.60;;;;;;498844;239;1178;-39
2022/04/13 03:04:01;;;;;;;;;;;21.20;34.60;;;;;;498971;239;1066;-40
2022/04/13 03:06:02;;;;;;;;;;;21.20;34.60;;;;;;498927;239;1441;-39
2022/04/13 03:08:04;;;;;;;;;;;21.20;34.60;;;;;;498539;239;1233;-39
2022/04/13 03:10:05;;;;;;;;;;;21.20;34.60;;;;;;498922;239;1101;-39
2022/04/13 03:12:06;;;;;;;;;;;21.20;34.60;;;;;;498860;239;1149;-39
2022/04/13 03:14:08;;;;;;;;;;;21.20;34.60;;;;;;498918;239;2125;-39
2022/04/13 03:16:09;;;;;;;;;;;21.20;34.60;;;;;;498537;239;1297;-39
2022/04/13 03:18:10;;;;;;;;;;;21.20;34.70;;;;;;498832;239;1171;-39
2022/04/13 03:20:12;;;;;;;;;;;21.20;34.70;;;;;;498392;239;1124;-39
2022/04/13 03:22:13;;;;;;;;;;;21.20;34.70;;;;;;498358;239;1243;-39
2022/04/13 03:24:14;;;;;;;;;;;21.20;34.70;;;;;;498453;239;1060;-39
2022/04/13 03:26:16;;;;;;;;;;;21.20;34.70;;;;;;498862;239;1345;-39
2022/04/13 03:28:17;;;;;;;;;;;21.20;34.60;;;;;;498874;239;1276;-39
2022/04/13 03:30:18;;;;;;;;;;;21.20;34.60;;;;;;498852;239;1042;-39
2022/04/13 03:32:20;;;;;;;;;;;21.20;34.50;;;;;;498836;239;1155;-39
2022/04/13 03:34:21;;;;;;;;;;;21.30;34.60;;;;;;498720;239;2201;-39
2022/04/13 03:36:22;;;;;;;;;;;21.20;34.60;;;;;;498343;239;1175;-39
2022/04/13 03:38:23;;;;;;;;;;;21.20;34.70;;;;;;498590;239;1186;-39
2022/04/13 03:40:26;;;;;;;;;;;21.20;34.70;;;;;;498428;239;1103;-39
2022/04/13 03:42:26;;;;;;;;;;;21.20;34.60;;;;;;498853;239;1355;-39
2022/04/13 03:44:27;;;;;;;;;;;21.20;34.60;;;;;;498907;239;1046;-39
2022/04/13 03:46:29;;;;;;;;;;;21.20;34.70;;;;;;498743;239;1433;-39
2022/04/13 03:48:30;;;;;;;;;;;21.20;34.70;;;;;;498931;239;1107;-39
2022/04/13 03:50:31;;;;;;;;;;;21.20;34.70;;;;;;498521;239;1081;-39
2022/04/13 03:52:33;;;;;;;;;;;21.20;34.60;;;;;;498422;239;1254;-39
2022/04/13 03:54:34;;;;;;;;;;;21.20;34.60;;;;;;498916;239;2129;-39
2022/04/13 03:56:36;;;;;;;;;;;21.20;34.60;;;;;;498903;239;1347;-39
2022/04/13 03:58:40;;;;;;;;;;;21.20;34.60;;;;;;498395;239;2136;-39
2022/04/13 04:00:38;;;;;;;;;;;21.20;34.60;;;;;;498733;239;2242;-39
2022/04/13 04:02:39;;;;;;;;;;;21.20;34.60;;;;;;498421;239;1080;-39
2022/04/13 04:04:41;;;;;;;;;;;21.20;34.60;;;;;;498470;239;1026;-39
2022/04/13 04:06:42;;;;;;;;;;;21.20;34.60;;;;;;498871;239;1097;-39
2022/04/13 04:08:43;;;;;;;;;;;21.20;34.60;;;;;;498579;239;1132;-39
2022/04/13 04:10:45;;;;;;;;;;;21.20;34.60;;;;;;498871;239;1106;-39
2022/04/13 04:12:46;;;;;;;;;;;21.20;34.60;;;;;;498358;239;1108;-39
2022/04/13 04:14:47;;;;;;;;;;;21.20;34.60;;;;;;498516;239;2142;-39
2022/04/13 04:16:49;;;;;;;;;;;21.20;34.60;;;;;;498420;239;1196;-39
2022/04/13 04:18:50;;;;;;;;;;;21.20;34.60;;;;;;498547;239;1150;-39
2022/04/13 04:20:51;;;;;;;;;;;21.20;34.70;;;;;;498240;236;1129;-39
2022/04/13 04:22:55;;;;;;;;;;;21.20;34.70;;;;;;498680;239;1193;-39
2022/04/13 04:24:54;;;;;;;;;;;21.20;34.70;;;;;;498190;239;2132;-39
2022/04/13 04:26:57;;;;;;;;;;;21.20;34.60;;;;;;498296;239;1102;-39
2022/04/13 04:28:57;;;;;;;;;;;21.20;34.60;;;;;;498681;239;2164;-39
2022/04/13 04:30:58;;;;;;;;;;;21.20;34.60;;;;;;498764;239;1107;-39
2022/04/13 04:33:00;;;;;;;;;;;21.20;34.60;;;;;;498765;239;1045;-39
2022/04/13 04:35:01;;;;;;;;;;;21.20;34.60;;;;;;498371;239;2177;-39
2022/04/13 04:37:02;;;;;;;;;;;21.20;34.70;;;;;;498636;239;1217;-39
2022/04/13 04:39:03;;;;;;;;;;;21.20;34.60;;;;;;498342;239;1162;-39
2022/04/13 04:41:07;;;;;;;;;;;21.20;34.70;;;;;;498777;239;1342;-39
2022/04/13 04:43:06;;;;;;;;;;;21.20;34.70;;;;;;498622;239;1909;-39
2022/04/13 04:45:07;;;;;;;;;;;21.20;34.70;;;;;;498857;239;1073;-39
2022/04/13 04:47:09;;;;;;;;;;;21.20;34.60;;;;;;498424;239;1659;-39
2022/04/13 04:49:10;;;;;;;;;;;21.20;34.70;;;;;;498658;239;1104;-39
2022/04/13 04:51:11;;;;;;;;;;;21.20;34.60;;;;;;498612;239;1243;-39
2022/04/13 04:53:13;;;;;;;;;;;21.30;34.60;;;;;;498623;239;1205;-39
2022/04/13 04:55:14;;;;;;;;;;;21.20;34.60;;;;;;498274;239;2184;-39
2022/04/13 04:57:15;;;;;;;;;;;21.20;34.70;;;;;;498289;239;2199;-39
2022/04/13 04:59:17;;;;;;;;;;;21.20;34.60;;;;;;498176;239;1177;-39
2022/04/13 05:01:18;;;;;;;;;;;21.20;34.60;;;;;;498556;239;1052;-39
2022/04/13 05:03:19;;;;;;;;;;;21.20;34.60;;;;;;498267;239;1099;-39
2022/04/13 05:05:21;;;;;;;;;;;21.30;34.60;;;;;;498370;239;1057;-39
2022/04/13 05:07:22;;;;;;;;;;;21.20;34.60;;;;;;498250;239;1036;-39
2022/04/13 05:09:25;;;;;;;;;;;21.20;34.60;;;;;;498385;239;1204;-39
2022/04/13 05:11:25;;;;;;;;;;;21.20;34.60;;;;;;498417;239;2177;-39
2022/04/13 05:13:26;;;;;;;;;;;21.20;34.70;;;;;;498443;239;1019;-39
2022/04/13 05:15:27;;;;;;;;;;;21.20;34.60;;;;;;498668;239;2180;-39
2022/04/13 05:17:28;;;;;;;;;;;21.30;34.70;;;;;;498172;239;1161;-39
2022/04/13 05:19:30;;;;;;;;;;;21.30;34.70;;;;;;498743;239;1060;-39
2022/04/13 05:21:31;;;;;;;;;;;21.30;34.70;;;;;;498363;239;1226;-39
2022/04/13 05:23:32;;;;;;;;;;;21.20;34.60;;;;;;498490;239;1185;-39
2022/04/13 05:25:34;;;;;;;;;;;21.30;34.70;;;;;;498460;239;1220;-39
2022/04/13 05:27:35;;;;;;;;;;;21.30;34.70;;;;;;498089;239;1279;-39
2022/04/13 05:29:36;;;;;;;;;;;21.20;34.60;;;;;;498060;239;1102;-39
2022/04/13 05:31:38;;;;;;;;;;;21.30;34.60;;;;;;498016;239;1309;-39
2022/04/13 05:33:39;;;;;;;;;;;21.30;34.60;;;;;;498252;239;1223;-39
2022/04/13 05:35:40;;;;;;;;;;;21.30;34.50;;;;;;498252;237;2098;-39
2022/04/13 05:37:42;;;;;;;;;;;21.30;34.60;;;;;;498199;239;1160;-39
2022/04/13 05:39:45;;;;;;;;;;;21.30;34.60;;;;;;498454;239;1229;-39
2022/04/13 05:41:44;;;;;;;;;;;21.30;34.60;;;;;;498334;239;1852;-39
2022/04/13 05:43:46;;;;;;;;;;;21.30;34.60;;;;;;498577;239;1058;-39
2022/04/13 05:45:47;;;;;;;;;;;21.30;34.60;;;;;;498597;239;1400;-39
2022/04/13 05:47:48;;;;;;;;;;;21.30;34.60;;;;;;498071;239;1574;-39
2022/04/13 05:49:49;;;;;;;;;;;21.30;34.70;;;;;;498276;239;1234;-39
2022/04/13 05:51:51;;;;;;;;;;;21.30;34.70;;;;;;497984;239;1437;-39
2022/04/13 05:53:52;;;;;;;;;;;21.20;34.60;;;;;;498313;239;1189;-39
2022/04/13 05:55:56;;;;;;;;;;;21.20;34.60;;;;;;498324;239;2118;-39
2022/04/13 05:57:57;;;;;;;;;;;21.30;34.70;;;;;;498554;239;1062;-39
2022/04/13 05:59:58;;;;;;;;;;;21.20;34.60;;;;;;498594;239;999;-40
2022/04/13 06:02:00;;;;;;;;;;;21.20;34.70;;;;;;498500;239;1249;-39
2022/04/13 06:04:01;;;;;;;;;;;21.20;34.70;;;;;;498111;239;1171;-39
2022/04/13 06:06:02;;;;;;;;;;;21.20;34.60;;;;;;498313;239;1310;-39
2022/04/13 06:08:04;;;;;;;;;;;21.30;34.70;;;;;;498004;239;1088;-39
2022/04/13 06:10:05;;;;;;;;;;;21.30;34.60;;;;;;497953;239;1157;-39
2022/04/13 06:12:06;;;;;;;;;;;21.30;34.60;;;;;;497965;239;1175;-39
2022/04/13 06:14:08;;;;;;;;;;;21.30;34.60;;;;;;498099;239;1122;-39
2022/04/13 06:16:09;;;;;;;;;;;21.20;34.60;;;;;;497960;239;2169;-39
2022/04/13 06:18:10;;;;;;;;;;;21.20;34.60;;;;;;497927;239;1259;-40
2022/04/13 06:20:14;;;;;;;;;;;21.30;34.60;;;;;;497841;239;1385;-39
2022/04/13 06:22:13;;;;;;;;;;;21.30;34.70;;;;;;497692;239;2193;-39
2022/04/13 06:24:16;;;;;;;;;;;21.20;34.60;;;;;;497969;239;1175;-39
2022/04/13 06:26:16;;;;;;;;;;;21.30;34.70;;;;;;497832;239;1990;-39
2022/04/13 06:28:17;;;;;;;;;;;21.30;34.70;;;;;;498422;239;1066;-39
2022/04/13 06:30:19;;;;;;;;;;;21.30;34.60;;;;;;497966;239;1268;-39
2022/04/13 06:32:20;;;;;;;;;;;21.20;34.60;;;;;;497866;239;1269;-39
2022/04/13 06:34:21;;;;;;;;;;;21.30;34.60;;;;;;497969;239;1092;-39
2022/04/13 06:36:22;;;;;;;;;;;21.20;34.60;;;;;;498129;239;2177;-39
2022/04/13 06:38:24;;;;;;;;;;;21.30;34.60;;;;;;497956;239;1298;-39
2022/04/13 06:40:25;;;;;;;;;;;21.20;34.60;;;;;;497786;239;1505;-39
2022/04/13 06:42:26;;;;;;;;;;;21.30;34.60;;;;;;497693;239;1246;-39
2022/04/13 06:44:28;;;;;;;;;;;21.30;34.60;;;;;;498093;239;1052;-39
2022/04/13 06:46:31;;;;;;;;;;;21.30;34.60;;;;;;497775;239;1205;-39
2022/04/13 06:48:31;;;;;;;;;;;21.30;34.50;;;;;;497330;239;1790;-39
2022/04/13 06:50:32;;;;;;;;;;;21.30;34.50;;;;;;498066;239;1278;-40
2022/04/13 06:52:33;;;;;;;;;;;21.30;34.50;;;;;;497949;239;1134;-39
2022/04/13 06:54:35;;;;;;;;;;;21.30;34.50;;;;;;497672;239;1205;-39
2022/04/13 06:56:39;;;;;;;;;;;21.30;34.60;;;;;;497668;239;2114;-39
2022/04/13 06:58:37;;;;;;;;;;;21.30;34.50;;;;;;497522;239;1922;-40
2022/04/13 07:00:38;;;;;;;;;;;21.30;34.50;;;;;;497696;239;1170;-39
2022/04/13 07:02:40;;;;;;;;;;;21.30;34.50;;;;;;497749;239;1059;-40
2022/04/13 07:04:41;;;;;;;;;;;21.30;34.60;;;;;;497702;239;1086;-39
2022/04/13 07:06:42;;;;;;;;;;;21.30;34.50;;;;;;497644;239;1270;-39
2022/04/13 07:08:44;;;;;;;;;;;21.40;34.50;;;;;;497630;239;1059;-39
2022/04/13 07:10:46;;;;;;;;;;;21.40;34.40;;;;;;497548;239;2415;-39
2022/04/13 07:12:46;;;;;;;;;;;21.30;34.40;;;;;;497633;239;1131;-39
2022/04/13 07:14:48;;;;;;;;;;;21.20;34.50;;;;;;497752;239;1321;-39
2022/04/13 07:16:49;;;;;;;;;;;21.20;34.50;;;;;;497681;239;2180;-39
2022/04/13 07:18:50;;;;;;;;;;;21.30;34.50;;;;;;497702;239;1140;-39
2022/04/13 07:20:52;;;;;;;;;;;21.30;34.60;;;;;;497693;239;1444;-39
2022/04/13 07:22:53;;;;;;;;;;;21.30;34.50;;;;;;497738;239;1154;-39
2022/04/13 07:24:54;;;;;;;;;;;21.30;34.50;;;;;;497868;239;1143;-39
2022/04/13 07:26:56;;;;;;;;;;;21.30;34.60;;;;;;497775;239;1148;-39
2022/04/13 07:28:57;;;;;;;;;;;21.20;34.60;;;;;;497669;239;1138;-39
2022/04/13 07:30:58;;;;;;;;;;;21.20;34.50;;;;;;497720;239;1447;-39
2022/04/13 07:33:01;;;;;;;;;;;21.20;34.50;;;;;;497634;239;1170;-39
2022/04/13 07:35:02;;;;;;;;;;;21.20;34.60;;;;;;497520;239;2178;-39
2022/04/13 07:37:03;;;;;;;;;;;21.20;34.50;;;;;;497840;239;2183;-39
2022/04/13 07:39:04;;;;;;;;;;;21.30;34.50;;;;;;497512;239;1096;-39
2022/04/13 07:41:05;;;;;;;;;;;21.30;34.50;;;;;;497455;239;1285;-39
2022/04/13 07:43:07;;;;;;;;;;;21.30;34.50;;;;;;497699;239;1033;-39
2022/04/13 07:45:08;;;;;;;;;;;21.30;34.50;;;;;;497674;239;1257;-39
2022/04/13 07:47:09;;;;;;;;;;;21.20;34.40;;;;;;497698;239;1326;-39
2022/04/13 07:49:10;;;;;;;;;;;21.30;34.50;;;;;;497833;239;1023;-39
2022/04/13 07:51:12;;;;;;;;;;;21.30;34.50;;;;;;497579;239;1375;-39
2022/04/13 07:53:13;;;;;;;;;;;21.30;34.40;;;;;;497862;239;1075;-39
2022/04/13 07:55:14;;;;;;;;;;;21.30;34.40;;;;;;497325;239;1248;-39
2022/04/13 07:57:16;;;;;;;;;;;21.30;34.50;;;;;;497922;239;1379;-39
2022/04/13 07:59:17;;;;;;;;;;;21.30;34.50;;;;;;497599;239;1130;-39
2022/04/13 08:01:19;;;;;;;;;;;21.30;34.50;;;;;;497525;239;1556;-39
2022/04/13 08:03:20;;;;;;;;;;;21.30;34.40;;;;;;497676;239;1249;-39
2022/04/13 08:05:22;;;;;;;;;;;21.30;34.40;;;;;;497853;239;1117;-39
2022/04/13 08:07:24;;;;;;;;;;;21.30;34.40;;;;;;497628;239;1173;-39
2022/04/13 08:09:24;;;;;;;;;;;21.30;34.50;;;;;;497396;239;2186;-39
2022/04/13 08:11:26;;;;;;;;;;;21.30;34.50;;;;;;497377;239;1295;-39
2022/04/13 08:13:27;;;;;;;;;;;21.30;34.40;;;;;;497560;239;1198;-39
2022/04/13 08:15:28;;;;;;;;;;;21.30;34.40;;;;;;497742;239;2180;-39
2022/04/13 08:17:30;;;;;;;;;;;21.30;34.40;;;;;;497853;239;1305;-39
2022/04/13 08:19:31;;;;;;;;;;;21.30;34.50;;;;;;497669;239;1058;-39
2022/04/13 08:21:33;;;;;;;;;;;21.30;34.40;;;;;;497699;239;1079;-40
2022/04/13 08:23:35;;;;;;;;;;;21.40;34.40;;;;;;497473;239;1053;-39
2022/04/13 08:25:36;;;;;;;;;;;21.30;34.40;;;;;;497388;239;1063;-39
2022/04/13 08:27:37;;;;;;;;;;;21.30;34.50;;;;;;497463;239;1185;-39
2022/04/13 08:29:39;;;;;;;;;;;21.30;34.50;;;;;;497827;239;1017;-39
2022/04/13 08:31:40;;;;;;;;;;;21.40;34.50;;;;;;497328;239;1235;-39
2022/04/13 08:33:41;;;;;;;;;;;21.30;34.50;;;;;;497483;239;1131;-39
2022/04/13 08:35:42;;;;;;;;;;;21.30;34.50;;;;;;497565;239;2173;-40
2022/04/13 08:37:44;;;;;;;;;;;21.30;34.50;;;;;;497578;239;1435;-40
2022/04/13 08:39:45;;;;;;;;;;;21.30;34.50;;;;;;497737;239;1250;-39
2022/04/13 08:41:47;;;;;;;;;;;21.40;34.50;;;;;;497576;239;1325;-39
2022/04/13 08:43:49;;;;;;;;;;;21.40;34.50;;;;;;497546;239;1028;-39
2022/04/13 08:45:50;;;;;;;;;;;21.40;34.40;;;;;;497510;239;1589;-39
2022/04/13 08:47:56;;;;;;;;;;;21.40;34.50;;;;;;497648;239;1164;-39
2022/04/13 08:49:52;;;;;;;;;;;21.30;34.40;;;;;;497332;239;1345;-39
2022/04/13 08:51:54;;;;;;;;;;;21.40;34.50;;;;;;497776;239;1224;-39
2022/04/13 08:53:55;;;;;;;;;;;21.30;34.50;;;;;;497786;239;1087;-39
2022/04/13 08:55:57;;;;;;;;;;;21.40;34.50;;;;;;497589;239;2185;-39
2022/04/13 08:57:58;;;;;;;;;;;21.30;34.50;;;;;;497591;239;2155;-39
2022/04/13 09:00:02;;;;;;;;;;;21.30;34.60;;;;;;497637;239;1065;-39
2022/04/13 09:02:02;;;;;;;;;;;21.30;34.50;;;;;;497496;239;2297;-39
2022/04/13 09:04:02;;;;;;;;;;;21.30;34.50;;;;;;497533;239;1801;-39
2022/04/13 09:06:03;;;;;;;;;;;21.40;34.60;;;;;;497477;239;1426;-39
2022/04/13 09:08:06;;;;;;;;;;;21.30;34.50;;;;;;498023;239;1073;-39
2022/04/13 09:10:07;;;;;;;;;;;21.30;34.60;;;;;;497874;239;1094;-39
2022/04/13 09:12:08;;;;;;;;;;;21.30;34.60;;;;;;497714;239;1210;-39
2022/04/13 09:14:09;;;;;;;;;;;21.30;34.70;;;;;;497777;239;1154;-39
2022/04/13 09:16:11;;;;;;;;;;;21.30;34.60;;;;;;497693;239;2241;-39
2022/04/13 09:18:12;;;;;;;;;;;21.30;34.70;;;;;;497688;239;1110;-39
2022/04/13 09:20:13;;;;;;;;;;;21.30;34.60;;;;;;497785;239;1083;-39
2022/04/13 09:22:15;;;;;;;;;;;21.30;34.70;;;;;;497708;239;1372;-39
2022/04/13 09:24:16;;;;;;;;;;;21.30;34.70;;;;;;497496;239;1067;-39
2022/04/13 09:26:17;;;;;;;;;;;21.30;34.70;;;;;;497493;239;1384;-39
2022/04/13 09:28:18;;;;;;;;;;;21.30;34.70;;;;;;497449;239;1212;-39
2022/04/13 09:30:20;;;;;;;;;;;21.30;34.70;;;;;;497710;239;1121;-39
2022/04/13 09:32:21;;;;;;;;;;;21.30;34.70;;;;;;497467;239;1350;-39
2022/04/13 09:34:22;;;;;;;;;;;21.30;34.70;;;;;;497610;239;1042;-39
2022/04/13 09:36:24;;;;;;;;;;;21.30;34.70;;;;;;497523;239;2184;-39
2022/04/13 09:38:26;;;;;;;;;;;21.30;34.70;;;;;;497578;239;1073;-39
2022/04/13 09:40:26;;;;;;;;;;;21.40;34.70;;;;;;497640;239;2197;-39
2022/04/13 09:42:28;;;;;;;;;;;21.30;34.60;;;;;;497715;239;1479;-39
2022/04/13 09:44:30;;;;;;;;;;;21.30;34.70;;;;;;497746;239;1064;-39
2022/04/13 09:46:31;;;;;;;;;;;21.30;34.70;;;;;;497663;239;2400;-39
2022/04/13 09:48:33;;;;;;;;;;;21.30;34.70;;;;;;497629;239;1120;-39
2022/04/13 09:50:33;;;;;;;;;;;21.30;34.70;;;;;;497485;239;1891;-39
2022/04/13 09:52:34;;;;;;;;;;;21.30;34.70;;;;;;497380;239;1335;-39
2022/04/13 09:54:36;;;;;;;;;;;21.30;34.80;;;;;;497603;239;1037;-39
2022/04/13 09:56:37;;;;;;;;;;;21.30;34.70;;;;;;497518;239;2180;-39
2022/04/13 09:58:39;;;;;;;;;;;21.30;34.70;;;;;;497607;239;1188;-40
2022/04/13 10:00:40;;;;;;;;;;;21.40;34.70;;;;;;497672;239;1078;-39
2022/04/13 10:02:41;;;;;;;;;;;21.40;34.70;;;;;;497678;239;1092;-39
2022/04/13 10:04:43;;;;;;;;;;;21.40;34.80;;;;;;497800;239;1045;-39
2022/04/13 10:06:44;;;;;;;;;;;21.40;34.80;;;;;;497747;239;1038;-39
2022/04/13 10:08:45;;;;;;;;;;;21.30;34.70;;;;;;497755;239;1221;-39
2022/04/13 10:10:47;;;;;;;;;;;21.40;34.70;;;;;;497912;239;1440;-39
2022/04/13 10:12:48;;;;;;;;;;;21.40;34.70;;;;;;497774;239;1316;-39
2022/04/13 10:14:49;;;;;;;;;;;21.30;34.70;;;;;;497681;239;1076;-39
2022/04/13 10:16:51;;;;;;;;;;;21.40;34.80;;;;;;497535;239;2188;-39
2022/04/13 10:18:52;;;;;;;;;;;21.30;34.80;;;;;;497776;239;1047;-39
2022/04/13 10:20:54;;;;;;;;;;;21.30;34.90;;;;;;497728;239;1055;-39
2022/04/13 10:22:55;;;;;;;;;;;21.30;34.90;;;;;;497632;239;1055;-39
2022/04/13 10:24:58;;;;;;;;;;;21.30;34.80;;;;;;497915;239;1218;-39
2022/04/13 10:26:59;;;;;;;;;;;21.30;34.90;;;;;;498341;239;1143;-39
2022/04/13 10:29:00;;;;;;;;;;;21.40;34.80;;;;;;497729;239;1129;-39
2022/04/13 10:31:02;;;;;;;;;;;21.40;34.80;;;;;;497616;239;1279;-40
2022/04/13 10:33:03;;;;;;;;;;;21.30;34.80;;;;;;497557;239;1070;-40
2022/04/13 10:35:05;;;;;;;;;;;21.40;34.80;;;;;;497430;239;1073;-40
2022/04/13 10:37:06;;;;;;;;;;;21.40;34.90;;;;;;497632;239;2149;-39
2022/04/13 10:39:07;;;;;;;;;;;21.40;34.90;;;;;;497869;239;1232;-39
2022/04/13 10:41:08;;;;;;;;;;;21.30;34.90;;;;;;497833;239;1181;-39
2022/04/13 10:43:10;;;;;;;;;;;21.30;34.90;;;;;;497762;239;1325;-39
2022/04/13 10:45:11;;;;;;;;;;;21.40;34.90;;;;;;497612;239;2284;-39
2022/04/13 10:47:12;;;;;;;;;;;21.40;34.90;;;;;;497540;239;1288;-39
2022/04/13 10:49:14;;;;;;;;;;;21.40;34.90;;;;;;497807;239;1412;-39
2022/04/13 10:51:15;;;;;;;;;;;21.30;34.90;;;;;;497978;239;1397;-39
2022/04/13 10:53:17;;;;;;;;;;;21.40;35.00;;;;;;497883;239;1158;-39
2022/04/13 10:55:18;;;;;;;;;;;21.30;35.00;;;;;;497591;239;1464;-39
2022/04/13 10:57:19;;;;;;;;;;;21.40;35.00;;;;;;497882;239;2118;-39
2022/04/13 10:59:20;;;;;;;;;;;21.30;34.90;;;;;;497787;239;1204;-39
2022/04/13 11:01:22;;;;;;;;;;;21.30;34.90;;;;;;497728;239;1398;-39
2022/04/13 11:03:25;;;;;;;;;;;21.30;35.00;;;;;;498077;239;1138;-39
2022/04/13 11:05:25;;;;;;;;;;;21.40;35.00;;;;;;497807;239;1470;-39
2022/04/13 11:07:26;;;;;;;;;;;21.40;35.00;;;;;;497827;239;1089;-39
2022/04/13 11:09:27;;;;;;;;;;;21.40;35.00;;;;;;497892;239;1074;-39
2022/04/13 11:11:29;;;;;;;;;;;21.40;35.00;;;;;;497528;239;1324;-39
2022/04/13 11:13:30;;;;;;;;;;;21.40;35.10;;;;;;497948;239;1138;-39
2022/04/13 11:15:31;;;;;;;;;;;21.40;35.10;;;;;;497740;239;1666;-39
2022/04/13 11:17:33;;;;;;;;;;;21.40;35.10;;;;;;497562;239;2201;-39
2022/04/13 11:19:34;;;;;;;;;;;21.40;35.10;;;;;;497724;239;1088;-39
2022/04/13 11:21:35;;;;;;;;;;;21.40;35.10;;;;;;497835;239;1220;-39
2022/04/13 11:23:36;;;;;;;;;;;21.40;35.10;;;;;;497751;239;1107;-39
2022/04/13 11:25:38;;;;;;;;;;;21.40;35.00;;;;;;497650;239;1339;-40
2022/04/13 11:27:39;;;;;;;;;;;21.40;35.10;;;;;;497928;239;1383;-39
2022/04/13 11:29:40;;;;;;;;;;;21.40;35.00;;;;;;497621;239;1184;-39
2022/04/13 11:31:42;;;;;;;;;;;21.40;35.10;;;;;;497570;239;1580;-39
2022/04/13 11:33:43;;;;;;;;;;;21.40;35.10;;;;;;497719;239;1068;-39
2022/04/13 11:35:45;;;;;;;;;;;21.40;35.10;;;;;;497510;239;1509;-39
2022/04/13 11:37:46;;;;;;;;;;;21.40;35.20;;;;;;497636;239;2169;-39
2022/04/13 11:39:48;;;;;;;;;;;21.40;35.20;;;;;;497589;239;1044;-39
2022/04/13 11:41:49;;;;;;;;;;;21.30;35.10;;;;;;497559;239;1159;-39
2022/04/13 11:43:50;;;;;;;;;;;21.40;35.20;;;;;;497839;239;1268;-39
2022/04/13 11:45:51;;;;;;;;;;;21.40;35.20;;;;;;497646;239;1129;-39
2022/04/13 11:47:53;;;;;;;;;;;21.40;35.20;;;;;;497968;239;1117;-39
2022/04/13 11:49:54;;;;;;;;;;;21.30;35.20;;;;;;497802;239;1223;-39
2022/04/13 11:51:56;;;;;;;;;;;21.30;35.20;;;;;;497601;236;1187;-39
2022/04/13 11:53:57;;;;;;;;;;;21.40;35.20;;;;;;498152;239;2429;-39
2022/04/13 11:55:58;;;;;;;;;;;21.40;35.20;;;;;;497782;239;1115;-39
2022/04/13 11:57:59;;;;;;;;;;;21.30;35.20;;;;;;497603;239;2212;-39